Skip Navigation LinksHome page > Weather > Current weather Skip Navigation Links

Current Weather

Ben-Gurion Intl Apt, Tel Aviv, Israel

For information only: do not use for flight planning or navigation.
Latest weather
Observation time Saturday, October 19, 2019 12:50 PM IDT
Local time Saturday, October 19, 2019 1:18 PM IDT
Flight conditions Visual Meteorological Conditions
Winds
Wind direction West-Northwest (290°)
Winds variable from 240° to 340°
Wind speed 9 mph
Visibility 6.2 mi.
Sky condition
Ceiling unlimited
Cloud layer scattered clouds 4,000 ft.
Temperature 82°F
Dewpoint 66°F
Altimeter 30.00 in.Hg
Derived measurements
Relative humidity 58%
Heat index 85°F
Density altitude 1863 ft.
Remarks
No significant changes expected in the next two hours.
METAR LLBG 190950Z 29008KT 240V340 9999 SCT040 28/19 Q1016 NOSIG

Settings

Location code

InnerDrive.Weather 4.0.6770.0 Release CLR 4.0.30319.42000
Copyright ©2018 Inner Drive Technology. All rights reserved. Portions Copyright ©1986-2018 David Braverman.

Find weather

Site navigation


Skip Navigation Links

Place info

Page info

PayPal - The safer, easier way to pay online!

Return home.

Copyright ©2019 Inner Drive Technology. Purveyors of fine, hand-crafted computer software. Page printed 2019-10-19T10:18:50 UTC.